Time;durP1;ratioP1;P1;durP2;ratioP2;P2;SDS_P1;SDS_P2;PMS_P1;PMS_P2;Temp;Humidity;BMP_temperature;BMP_pressure;BME280_temperature;BME280_humidity;BME280_pressure;Samples;Min_cycle;Max_cycle;Signal;HPM_P1;HPM_P2
2024/01/17 00:02:08;;;;;;;14.80;12.70;;;;;;;18.17;55.29;100564.59;5031418;28;20052;-63
2024/01/17 00:04:36;;;;;;;14.77;13.15;;;;;;;18.15;55.32;100563.84;5015801;28;20052;-63
2024/01/17 00:07:03;;;;;;;13.90;12.20;;;;;;;18.15;55.24;100554.00;5026018;28;20042;-62
2024/01/17 00:09:31;;;;;;;14.93;12.70;;;;;;;18.14;55.33;100548.78;5025049;28;20403;-63
2024/01/17 00:12:03;;;;;;;13.95;12.55;;;;;;;18.13;55.37;100545.25;5032543;28;20057;-63
2024/01/17 00:14:31;;;;;;;14.15;12.65;;;;;;;18.13;55.26;100555.97;5047053;28;20049;-63
2024/01/17 00:16:59;;;;;;;14.38;12.88;;;;;;;18.13;55.18;100566.69;5032999;28;20470;-62
2024/01/17 00:19:26;;;;;;;14.05;12.30;;;;;;;18.12;55.01;100562.31;5031973;28;20103;-63
2024/01/17 00:21:53;;;;;;;12.90;11.60;;;;;;;18.12;55.11;100548.06;5031387;28;20053;-63
2024/01/17 00:24:21;;;;;;;12.77;11.50;;;;;;;18.11;55.25;100538.31;5032388;28;20380;-63
2024/01/17 00:26:48;;;;;;;13.30;11.88;;;;;;;18.10;55.03;100518.72;5031963;28;20042;-62
2024/01/17 00:29:15;;;;;;;13.10;11.68;;;;;;;18.11;54.80;100516.88;5031815;28;20053;-63
2024/01/17 00:31:43;;;;;;;14.40;12.35;;;;;;;18.09;54.75;100522.38;5031678;28;20052;-63
2024/01/17 00:34:10;;;;;;;13.73;12.10;;;;;;;18.09;54.53;100514.34;5032262;28;20056;-63
2024/01/17 00:36:38;;;;;;;12.95;11.65;;;;;;;18.08;54.49;100509.13;5031785;28;20407;-63
2024/01/17 00:39:06;;;;;;;13.13;11.88;;;;;;;18.08;54.59;100506.44;5032910;28;20053;-63
2024/01/17 00:41:33;;;;;;;13.57;12.07;;;;;;;18.07;54.38;100491.31;5030779;28;20101;-63
2024/01/17 00:44:04;;;;;;;14.48;12.10;;;;;;;18.07;54.32;100477.94;5025774;28;20381;-62
2024/01/17 00:46:32;;;;;;;13.73;12.20;;;;;;;18.06;53.79;100468.22;5032126;28;20049;-63
2024/01/17 00:48:59;;;;;;;13.55;11.68;;;;;;;18.04;53.63;100461.16;5031851;28;20056;-59
2024/01/17 00:51:27;;;;;;;12.45;11.15;;;;;;;18.04;53.44;100465.69;5031545;28;20054;-60
2024/01/17 00:53:54;;;;;;;12.95;11.75;;;;;;;18.04;53.30;100482.59;5032500;28;20416;-59
2024/01/17 00:56:21;;;;;;;12.80;11.55;;;;;;;18.03;53.35;100472.88;5034379;28;20076;-59
2024/01/17 00:58:49;;;;;;;12.27;11.07;;;;;;;18.02;53.28;100471.16;5035576;28;20046;-59
2024/01/17 01:01:16;;;;;;;13.88;11.73;;;;;;;18.03;53.06;100483.59;5034986;28;20426;-59
2024/01/17 01:03:43;;;;;;;11.93;10.30;;;;;;;18.02;53.01;100489.06;5035873;28;20506;-59
2024/01/17 01:06:11;;;;;;;12.70;11.38;;;;;;;18.02;52.66;100475.66;5034496;28;20057;-59
2024/01/17 01:08:38;;;;;;;13.30;11.98;;;;;;;18.01;52.95;100480.16;5023930;28;20069;-63
2024/01/17 01:11:07;;;;;;;14.32;11.80;;;;;;;18.01;52.70;100484.69;5033141;28;20403;-63
2024/01/17 01:13:34;;;;;;;12.95;11.60;;;;;;;18.00;52.69;100493.72;5035864;28;20407;-63
2024/01/17 01:16:03;;;;;;;12.45;11.15;;;;;;;18.00;52.52;100512.44;5035845;28;20076;-63
2024/01/17 01:18:31;;;;;;;13.48;11.88;;;;;;;18.00;52.37;100517.81;5035684;28;20487;-59
2024/01/17 01:20:58;;;;;;;13.85;12.25;;;;;;;17.98;52.24;100520.59;5035680;28;20397;-59
2024/01/17 01:23:27;;;;;;;13.18;11.15;;;;;;;17.98;52.10;100507.22;5035584;28;20049;-59
2024/01/17 01:25:55;;;;;;;13.32;11.88;;;;;;;17.97;52.15;100488.59;5035618;28;20522;-60
2024/01/17 01:28:22;;;;;;;14.27;11.13;;;;;;;17.97;52.07;100493.97;5035816;28;20053;-62
2024/01/17 01:30:49;;;;;;;12.07;10.80;;;;;;;17.96;51.87;100487.75;5034939;28;20058;-63
2024/01/17 01:33:17;;;;;;;12.55;11.25;;;;;;;17.96;52.03;100477.03;5035636;28;20049;-63
2024/01/17 01:35:44;;;;;;;13.32;11.93;;;;;;;17.95;51.72;100467.31;5035861;28;20049;-63
2024/01/17 01:38:12;;;;;;;12.20;10.70;;;;;;;17.96;51.88;100466.34;5035618;28;20396;-60
2024/01/17 01:40:39;;;;;;;13.75;11.25;;;;;;;17.96;51.78;100454.78;5035050;28;20050;-59
2024/01/17 01:43:20;;;;;;;12.68;11.07;;;;;;;17.95;51.55;100455.75;5031603;28;20038;-59
2024/01/17 01:46:09;;;;;;;12.77;11.23;;;;;;;17.95;51.40;100461.13;5027441;28;20048;-59
2024/01/17 01:48:37;;;;;;;13.88;11.70;;;;;;;17.94;51.32;100472.78;5035056;28;20407;-60
2024/01/17 01:51:05;;;;;;;12.85;11.55;;;;;;;17.94;51.34;100462.06;5035244;28;20496;-60
2024/01/17 01:53:34;;;;;;;12.05;10.55;;;;;;;17.94;51.19;100462.06;5035754;28;20042;-60
2024/01/17 01:56:02;;;;;;;12.75;11.45;;;;;;;17.93;51.09;100452.34;5035213;28;20053;-60
2024/01/17 01:58:32;;;;;;;13.13;11.73;;;;;;;17.93;51.00;100444.31;5034880;28;20045;-60
2024/01/17 02:00:59;;;;;;;14.30;11.13;;;;;;;17.93;50.88;100438.97;5035109;28;20097;-59
2024/01/17 02:03:28;;;;;;;12.73;10.88;;;;;;;17.94;50.80;100443.31;5035163;28;20049;-59
2024/01/17 02:05:56;;;;;;;11.98;10.70;;;;;;;17.92;50.66;100439.94;5034144;28;20053;-62
2024/01/17 02:08:24;;;;;;;13.55;11.38;;;;;;;17.92;50.52;100432.75;5033980;28;20053;-62
2024/01/17 02:10:52;;;;;;;13.45;11.55;;;;;;;17.93;50.63;100442.47;5015075;28;20054;-62
2024/01/17 02:13:20;;;;;;;13.55;12.10;;;;;;;17.92;50.39;100448.84;5019244;28;20501;-62
2024/01/17 02:15:48;;;;;;;12.45;11.15;;;;;;;17.91;50.36;100444.47;5015305;28;20046;-63
2024/01/17 02:18:15;;;;;;;12.35;11.10;;;;;;;17.91;50.24;100436.44;5015786;28;20076;-59
2024/01/17 02:20:43;;;;;;;12.30;11.00;;;;;;;17.91;50.28;100431.06;5013606;28;20050;-59
2024/01/17 02:23:30;;;;;;;11.38;10.27;;;;;;;17.91;50.30;100432.91;5015022;28;20042;-60
2024/01/17 02:25:58;;;;;;;12.73;11.27;;;;;;;17.91;50.18;100436.44;5015529;28;20519;-59
2024/01/17 02:28:28;;;;;;;12.15;10.88;;;;;;;17.91;50.10;100448.97;5015495;28;20054;-62
2024/01/17 02:30:56;;;;;;;13.82;10.95;;;;;;;17.91;50.13;100448.97;5014847;28;20401;-63
2024/01/17 02:33:24;;;;;;;13.10;11.10;;;;;;;17.91;49.90;100446.28;5014735;28;20053;-62
2024/01/17 02:35:52;;;;;;;10.55;9.45;;;;;;;17.89;49.82;100443.72;5015209;28;20515;-62
2024/01/17 02:38:19;;;;;;;12.27;10.02;;;;;;;17.90;49.90;100441.91;5014136;28;20045;-60
2024/01/17 02:40:47;;;;;;;12.07;10.77;;;;;;;17.89;49.65;100435.69;5014619;28;20077;-60
2024/01/17 02:43:14;;;;;;;11.43;10.23;;;;;;;17.89;49.71;100450.91;5014321;28;20049;-60
2024/01/17 02:45:42;;;;;;;12.63;10.93;;;;;;;17.88;49.43;100447.41;5015015;28;20492;-60
2024/01/17 02:48:09;;;;;;;12.38;11.10;;;;;;;17.89;49.52;100449.09;5014575;28;20092;-60
2024/01/17 02:50:38;;;;;;;12.90;10.75;;;;;;;17.88;49.43;100441.19;5015178;28;20046;-60
2024/01/17 02:53:06;;;;;;;12.60;11.10;;;;;;;17.87;49.32;100426.13;5014635;28;20061;-60
2024/01/17 02:55:34;;;;;;;11.80;10.60;;;;;;;17.88;49.29;100428.66;5015068;28;20455;-60
2024/01/17 02:58:01;;;;;;;11.60;10.40;;;;;;;17.87;49.22;100429.63;5015281;28;20053;-61
2024/01/17 03:00:29;;;;;;;12.00;10.70;;;;;;;17.87;49.18;100415.41;5014615;28;20045;-59
2024/01/17 03:02:56;;;;;;;11.82;10.60;;;;;;;17.87;49.15;100426.97;5014576;28;20373;-59
2024/01/17 03:05:23;;;;;;;11.70;10.50;;;;;;;17.87;48.98;100418.09;5013205;28;20503;-59
2024/01/17 03:07:51;;;;;;;11.95;10.68;;;;;;;17.86;48.98;100400.28;5014200;28;20491;-60
2024/01/17 03:10:18;;;;;;;10.52;9.43;;;;;;;17.85;48.91;100401.28;5013074;28;20042;-60
2024/01/17 03:12:46;;;;;;;12.35;11.05;;;;;;;17.85;48.83;100401.28;5024016;28;20046;-60
2024/01/17 03:15:14;;;;;;;12.68;11.38;;;;;;;17.84;48.87;100383.53;5015622;28;20037;-60
2024/01/17 03:17:42;;;;;;;11.35;10.20;;;;;;;17.83;48.82;100382.69;5012217;28;20357;-62
2024/01/17 03:20:10;;;;;;;12.15;10.90;;;;;;;17.84;48.76;100383.53;5014224;28;20389;-62
2024/01/17 03:22:42;;;;;;;11.13;10.02;;;;;;;17.84;48.73;100368.31;5014445;28;20042;-62
2024/01/17 03:25:09;;;;;;;12.40;11.10;;;;;;;17.84;48.59;100362.94;5018058;28;20464;-62
2024/01/17 03:27:37;;;;;;;12.05;10.75;;;;;;;17.84;48.54;100362.09;5014588;28;20401;-62
2024/01/17 03:30:05;;;;;;;10.95;9.93;;;;;;;17.83;48.45;100376.47;5013992;28;20057;-62
2024/01/17 03:32:32;;;;;;;11.65;10.45;;;;;;;17.83;48.49;100355.06;5016542;28;20042;-62
2024/01/17 03:35:00;;;;;;;10.93;9.80;;;;;;;17.82;48.51;100358.69;5014219;28;20045;-62
2024/01/17 03:37:28;;;;;;;11.75;10.55;;;;;;;17.83;48.48;100371.97;5014745;28;20507;-61
2024/01/17 03:39:55;;;;;;;12.65;10.88;;;;;;;17.82;48.45;100354.19;5014111;28;20050;-62
2024/01/17 03:42:22;;;;;;;12.98;11.02;;;;;;;17.83;48.39;100355.06;5013752;28;20064;-62
2024/01/17 03:44:50;;;;;;;11.90;10.60;;;;;;;17.82;48.26;100340.81;5028757;28;20049;-62
2024/01/17 03:47:17;;;;;;;11.20;10.05;;;;;;;17.82;48.31;100332.75;5013854;28;20065;-60
2024/01/17 03:49:45;;;;;;;10.93;9.73;;;;;;;17.82;48.33;100314.03;5024390;28;20053;-60
2024/01/17 03:52:12;;;;;;;11.60;10.45;;;;;;;17.81;48.27;100311.50;5017584;28;20046;-60
2024/01/17 03:54:40;;;;;;;11.55;10.35;;;;;;;17.82;48.28;100306.00;5014266;28;20053;-60
2024/01/17 03:57:08;;;;;;;12.57;10.27;;;;;;;17.83;48.21;100313.06;5013552;28;20050;-60
2024/01/17 03:59:36;;;;;;;13.05;10.45;;;;;;;17.81;48.22;100312.34;5013753;28;20504;-60
2024/01/17 04:02:03;;;;;;;13.88;11.63;;;;;;;17.80;48.19;100318.69;5013252;28;20404;-61
2024/01/17 04:04:31;;;;;;;12.82;11.45;;;;;;;17.81;48.07;100317.69;5013567;28;20527;-61
2024/01/17 04:06:58;;;;;;;13.27;11.23;;;;;;;17.81;48.13;100327.56;5013426;28;20117;-61
2024/01/17 04:09:26;;;;;;;10.90;9.80;;;;;;;17.79;48.16;100328.56;5013312;28;20071;-61
2024/01/17 04:11:53;;;;;;;11.45;10.25;;;;;;;17.78;48.21;100318.84;5012488;28;20061;-62
2024/01/17 04:14:20;;;;;;;11.95;10.75;;;;;;;17.79;48.06;100317.00;5014088;28;20496;-61
2024/01/17 04:16:48;;;;;;;11.38;10.18;;;;;;;17.77;48.18;100319.78;5013642;28;20051;-61
2024/01/17 04:19:15;;;;;;;11.98;10.40;;;;;;;17.77;48.16;100317.09;5013826;28;20046;-61
2024/01/17 04:21:42;;;;;;;12.02;10.57;;;;;;;17.77;48.20;100303.72;5013628;28;20054;-61
2024/01/17 04:24:10;;;;;;;11.38;10.18;;;;;;;17.76;48.21;100290.47;5014452;28;20038;-60
2024/01/17 04:26:37;;;;;;;12.60;10.68;;;;;;;17.74;48.22;100293.31;5013587;28;20053;-60
2024/01/17 04:29:05;;;;;;;11.48;10.15;;;;;;;17.75;48.12;100291.47;5013576;28;20400;-61
2024/01/17 04:31:32;;;;;;;11.82;10.57;;;;;;;17.73;48.12;100283.53;5013629;28;20068;-61
2024/01/17 04:34:02;;;;;;;11.73;10.57;;;;;;;17.73;47.98;100280.00;5015049;28;20555;-61
2024/01/17 04:36:31;;;;;;;11.95;10.60;;;;;;;17.73;48.09;100274.66;5013838;28;20069;-61
2024/01/17 04:39:00;;;;;;;13.80;10.88;;;;;;;17.73;48.05;100270.13;5014083;28;20041;-61
2024/01/17 04:41:28;;;;;;;11.27;10.02;;;;;;;17.72;48.10;100268.44;5013622;28;20053;-61
2024/01/17 04:43:55;;;;;;;11.27;10.00;;;;;;;17.71;48.17;100264.09;5019339;28;20459;-61
2024/01/17 04:46:23;;;;;;;13.82;11.07;;;;;;;17.71;48.12;100274.78;5012592;28;20050;-61
2024/01/17 04:48:50;;;;;;;11.70;10.50;;;;;;;17.70;48.18;100288.28;5013696;28;20050;-62
2024/01/17 04:51:21;;;;;;;11.88;10.68;;;;;;;17.69;48.23;100283.94;5013707;28;20056;-60
2024/01/17 04:53:49;;;;;;;10.82;9.73;;;;;;;17.69;48.16;100270.53;5013727;28;20046;-60
2024/01/17 04:56:16;;;;;;;11.82;10.65;;;;;;;17.68;48.15;100268.84;5013931;28;20045;-60
2024/01/17 04:58:44;;;;;;;11.20;9.98;;;;;;;17.68;47.97;100272.38;5013498;28;20385;-59
2024/01/17 05:01:11;;;;;;;11.25;10.07;;;;;;;17.68;47.91;100272.38;5014268;28;20109;-59
2024/01/17 05:03:42;;;;;;;11.55;10.27;;;;;;;17.69;47.92;100270.53;5013545;28;20392;-59
2024/01/17 05:06:10;;;;;;;12.15;9.98;;;;;;;17.68;47.83;100261.66;5013269;28;20050;-61
2024/01/17 05:08:37;;;;;;;11.60;10.40;;;;;;;17.68;47.91;100253.63;5013139;28;20057;-62
2024/01/17 05:11:05;;;;;;;12.73;10.60;;;;;;;17.68;47.82;100250.13;5013976;28;20068;-62
2024/01/17 05:13:32;;;;;;;11.20;10.07;;;;;;;17.68;47.81;100248.28;5014093;28;20045;-62
2024/01/17 05:16:00;;;;;;;12.70;10.68;;;;;;;17.67;47.92;100251.97;5013321;28;20053;-61
2024/01/17 05:18:27;;;;;;;10.85;9.70;;;;;;;17.67;47.86;100246.59;5013223;28;20054;-60
2024/01/17 05:20:55;;;;;;;11.80;10.30;;;;;;;17.67;47.93;100245.75;5013153;28;20053;-61
2024/01/17 05:23:23;;;;;;;14.43;11.70;;;;;;;17.68;47.79;100244.75;5013259;28;20053;-60
2024/01/17 05:25:50;;;;;;;11.10;10.00;;;;;;;17.67;47.82;100245.75;5013252;28;20048;-61
2024/01/17 05:28:17;;;;;;;11.15;9.90;;;;;;;17.66;47.88;100252.94;5013662;28;20404;-61
2024/01/17 05:30:45;;;;;;;10.57;9.30;;;;;;;17.66;47.83;100255.63;5014378;28;20424;-61
2024/01/17 05:33:12;;;;;;;10.80;9.70;;;;;;;17.66;47.71;100252.94;5013575;28;20046;-61
2024/01/17 05:35:40;;;;;;;12.50;10.90;;;;;;;17.65;47.79;100248.56;5013245;28;20396;-61
2024/01/17 05:38:07;;;;;;;12.23;10.93;;;;;;;17.65;47.76;100229.81;5013128;28;20042;-62
2024/01/17 05:40:35;;;;;;;11.10;10.00;;;;;;;17.65;47.85;100240.53;5015718;28;20046;-63
2024/01/17 05:43:03;;;;;;;13.38;11.15;;;;;;;17.65;47.93;100240.53;5016674;28;20060;-62
2024/01/17 05:45:30;;;;;;;13.50;10.77;;;;;;;17.66;47.76;100236.88;5016725;28;20042;-61
2024/01/17 05:47:58;;;;;;;11.98;10.75;;;;;;;17.65;47.56;100229.81;5016924;28;20046;-60
2024/01/17 05:50:25;;;;;;;12.50;11.20;;;;;;;17.67;47.53;100241.25;5026844;28;20054;-60
2024/01/17 05:52:53;;;;;;;12.27;10.38;;;;;;;17.66;47.61;100244.91;5016347;28;20049;-60
2024/01/17 05:55:21;;;;;;;11.88;9.77;;;;;;;17.66;47.56;100252.06;5016880;28;20053;-60
2024/01/17 05:57:50;;;;;;;11.70;10.50;;;;;;;17.66;47.64;100249.41;5015310;28;20046;-62
2024/01/17 06:00:21;;;;;;;12.30;10.32;;;;;;;17.64;47.61;100254.91;5016567;28;20057;-62
2024/01/17 06:02:48;;;;;;;11.60;10.35;;;;;;;17.64;47.65;100260.25;5016531;28;20053;-62
2024/01/17 06:05:18;;;;;;;11.52;10.32;;;;;;;17.63;47.66;100234.47;5016071;28;20053;-62
2024/01/17 06:07:45;;;;;;;11.82;10.63;;;;;;;17.62;47.50;100235.44;5016263;28;20057;-62
2024/01/17 06:10:13;;;;;;;11.02;9.82;;;;;;;17.63;47.55;100239.81;5017257;28;20056;-62
2024/01/17 06:12:42;;;;;;;11.57;10.30;;;;;;;17.63;47.53;100250.53;5015649;28;20378;-60
2024/01/17 06:15:10;;;;;;;11.45;10.20;;;;;;;17.63;47.48;100239.81;5016450;28;20042;-60
2024/01/17 06:17:37;;;;;;;12.18;10.32;;;;;;;17.64;47.65;100238.00;5016730;28;20046;-62
2024/01/17 06:20:05;;;;;;;12.45;11.15;;;;;;;17.63;47.46;100247.84;5018176;28;20401;-62
2024/01/17 06:22:33;;;;;;;13.90;11.20;;;;;;;17.64;47.46;100246.03;5016408;28;20054;-62
2024/01/17 06:25:00;;;;;;;11.13;9.93;;;;;;;17.64;47.43;100248.69;5016468;28;20053;-62
2024/01/17 06:27:27;;;;;;;11.63;10.43;;;;;;;17.64;47.40;100236.16;5016637;28;20408;-61
2024/01/17 06:29:55;;;;;;;11.32;10.13;;;;;;;17.64;47.37;100248.69;5017642;28;20068;-61
2024/01/17 06:32:22;;;;;;;11.63;10.15;;;;;;;17.64;47.34;100252.22;5016423;28;20122;-60
2024/01/17 06:34:50;;;;;;;11.60;10.20;;;;;;;17.66;47.40;100252.06;5020361;28;20051;-61
2024/01/17 06:37:18;;;;;;;11.60;9.70;;;;;;;17.65;47.54;100259.25;5014823;28;20049;-61
2024/01/17 06:39:46;;;;;;;12.55;10.27;;;;;;;17.65;47.40;100275.31;5017566;28;20049;-59
2024/01/17 06:42:13;;;;;;;11.57;10.38;;;;;;;17.66;47.42;100266.34;5016284;28;20053;-60
2024/01/17 06:44:41;;;;;;;12.55;10.18;;;;;;;17.64;47.31;100259.41;5021649;28;20056;-60
2024/01/17 06:47:08;;;;;;;11.48;10.27;;;;;;;17.65;47.23;100280.66;5015792;28;20417;-61
2024/01/17 06:49:35;;;;;;;13.40;10.55;;;;;;;17.66;47.24;100284.19;5017443;28;20439;-61
2024/01/17 06:52:03;;;;;;;11.32;10.15;;;;;;;17.66;47.30;100278.84;5015617;28;20090;-61
2024/01/17 06:54:31;;;;;;;10.88;9.77;;;;;;;17.65;47.28;100275.31;5015854;28;20050;-61
2024/01/17 06:56:58;;;;;;;11.73;10.50;;;;;;;17.65;47.28;100267.28;5016397;28;20122;-62
2024/01/17 06:59:26;;;;;;;11.13;9.55;;;;;;;17.66;47.13;100274.38;5016960;28;20049;-62
2024/01/17 07:01:54;;;;;;;11.07;9.35;;;;;;;17.65;47.34;100267.28;5015755;28;20125;-62
2024/01/17 07:04:21;;;;;;;10.88;9.35;;;;;;;17.65;47.20;100263.78;5015703;28;20377;-63
2024/01/17 07:06:49;;;;;;;11.68;10.40;;;;;;;17.65;47.35;100277.16;5015315;28;20042;-60
2024/01/17 07:09:17;;;;;;;10.88;9.43;;;;;;;17.64;47.36;100272.78;5016967;28;20045;-61
2024/01/17 07:11:45;;;;;;;11.80;10.15;;;;;;;17.64;47.34;100270.97;5015795;28;20045;-62
2024/01/17 07:14:12;;;;;;;10.25;9.25;;;;;;;17.64;47.45;100262.94;5019238;28;20041;-62
2024/01/17 07:16:39;;;;;;;13.27;10.73;;;;;;;17.64;47.30;100270.13;5015444;28;20057;-62
2024/01/17 07:19:12;;;;;;;12.07;10.77;;;;;;;17.64;47.34;100275.47;5018798;28;20045;-60
2024/01/17 07:21:42;;;;;;;12.02;9.68;;;;;;;17.62;47.48;100272.91;5015899;28;20400;-61
2024/01/17 07:24:10;;;;;;;11.02;9.45;;;;;;;17.62;47.45;100278.25;5017443;28;20046;-61
2024/01/17 07:26:38;;;;;;;12.32;10.30;;;;;;;17.62;47.26;100288.13;5015537;28;20045;-61
2024/01/17 07:29:05;;;;;;;11.13;9.57;;;;;;;17.62;47.39;100294.31;5016760;28;20049;-61
2024/01/17 07:31:33;;;;;;;12.57;10.18;;;;;;;17.61;47.30;100289.94;5015217;28;20054;-62
2024/01/17 07:34:00;;;;;;;14.68;11.45;;;;;;;17.61;47.32;100289.94;5015177;28;20053;-62
2024/01/17 07:36:28;;;;;;;11.63;10.02;;;;;;;17.60;47.34;100280.25;5015482;28;20046;-62
2024/01/17 07:38:55;;;;;;;12.13;10.50;;;;;;;17.61;47.30;100286.44;5015912;28;20108;-62
2024/01/17 07:41:23;;;;;;;14.20;11.40;;;;;;;17.65;47.34;100295.88;5015891;28;20057;-59
2024/01/17 07:43:50;;;;;;;13.23;11.55;;;;;;;17.69;47.60;100290.13;5029709;28;20380;-59
2024/01/17 07:46:17;;;;;;;13.25;10.70;;;;;;;17.70;47.49;100291.84;5018573;28;20053;-59
2024/01/17 07:48:45;;;;;;;12.40;10.48;;;;;;;17.67;47.36;100284.06;5029030;28;20049;-57
2024/01/17 07:51:13;;;;;;;11.77;10.38;;;;;;;17.65;47.50;100277.16;5019112;28;20050;-58
2024/01/17 07:53:41;;;;;;;12.20;10.55;;;;;;;17.62;47.36;100278.25;5015515;28;20056;-59
2024/01/17 07:56:09;;;;;;;12.93;10.75;;;;;;;17.61;47.30;100275.72;5015421;28;20046;-59
2024/01/17 07:58:37;;;;;;;15.23;12.00;;;;;;;17.59;47.42;100264.31;5015764;28;20054;-59
2024/01/17 08:01:05;;;;;;;14.27;10.70;;;;;;;17.57;47.47;100244.84;5024584;28;20432;-59
2024/01/17 08:03:33;;;;;;;13.93;11.45;;;;;;;17.56;47.42;100257.41;5014239;28;20050;-59
2024/01/17 08:06:00;;;;;;;12.77;11.48;;;;;;;17.54;47.44;100260.22;5015278;28;20046;-58
2024/01/17 08:08:28;;;;;;;11.90;10.65;;;;;;;17.55;47.45;100267.25;5015675;28;20906;-56
2024/01/17 08:10:56;;;;;;;18.98;14.65;;;;;;;17.54;46.85;100252.19;5014723;28;20065;-59
2024/01/17 08:13:23;;;;;;;24.90;19.63;;;;;;;17.52;46.27;100245.25;5014648;28;20060;-58
2024/01/17 08:15:50;;;;;;;25.38;20.38;;;;;;;17.52;45.99;100242.59;5014205;28;20504;-57
2024/01/17 08:18:18;;;;;;;27.77;22.65;;;;;;;17.51;45.15;100240.91;5033234;28;20056;-58
2024/01/17 08:20:46;;;;;;;27.80;22.05;;;;;;;17.50;45.06;100253.44;5032746;28;20046;-56
2024/01/17 08:23:13;;;;;;;34.22;28.02;;;;;;;17.52;43.94;100242.59;5028563;28;20409;-58
2024/01/17 08:25:41;;;;;;;35.92;30.15;;;;;;;17.49;43.34;100229.47;5030952;28;20048;-59
2024/01/17 08:28:08;;;;;;;37.92;30.58;;;;;;;17.48;43.00;100236.66;5024937;28;20056;-57
2024/01/17 08:30:35;;;;;;;36.75;28.80;;;;;;;17.47;42.87;100243.00;5022932;28;20061;-59
2024/01/17 08:33:03;;;;;;;32.78;27.90;;;;;;;17.42;43.19;100239.88;5022811;28;20381;-59
2024/01/17 08:35:32;;;;;;;27.85;24.15;;;;;;;17.37;43.94;100235.88;5027824;28;20045;-59
2024/01/17 08:38:00;;;;;;;28.83;21.27;;;;;;;17.35;44.72;100232.53;5021575;28;20488;-58
2024/01/17 08:40:28;;;;;;;27.23;22.42;;;;;;;17.38;44.77;100224.19;5019239;28;20050;-57
2024/01/17 08:42:57;;;;;;;23.75;20.25;;;;;;;17.38;45.17;100218.84;5019603;28;20054;-56
2024/01/17 08:45:24;;;;;;;23.67;19.60;;;;;;;17.38;45.42;100225.06;5023889;28;20036;-57
2024/01/17 08:47:52;;;;;;;21.88;18.17;;;;;;;17.40;45.55;100230.28;5018523;28;20041;-55
2024/01/17 08:50:19;;;;;;;22.83;19.50;;;;;;;17.45;45.55;100230.72;5017497;28;20069;-58
2024/01/17 08:52:48;;;;;;;21.63;18.30;;;;;;;17.47;45.64;100212.72;5015715;28;20487;-57
2024/01/17 08:55:16;;;;;;;21.48;19.23;;;;;;;17.47;45.74;100204.69;5018781;28;20349;-58
2024/01/17 08:57:43;;;;;;;20.60;17.73;;;;;;;17.46;45.78;100214.53;5015895;28;20049;-58
2024/01/17 09:00:13;;;;;;;19.42;16.55;;;;;;;17.46;45.77;100219.03;5014605;28;20046;-58
2024/01/17 09:02:41;;;;;;;22.77;16.88;;;;;;;17.48;45.87;100201.03;5016207;28;20050;-58
2024/01/17 09:05:09;;;;;;;23.52;18.33;;;;;;;17.47;45.67;100197.50;5018493;28;20042;-58
2024/01/17 09:07:36;;;;;;;25.02;18.52;;;;;;;17.50;45.57;100189.22;5029467;28;20057;-58
2024/01/17 09:10:04;;;;;;;19.42;17.30;;;;;;;17.50;45.59;100199.91;5015017;28;20400;-58
2024/01/17 09:12:32;;;;;;;20.20;17.67;;;;;;;17.51;45.60;100177.50;5020208;28;20053;-58
2024/01/17 09:14:59;;;;;;;21.17;17.58;;;;;;;17.52;45.75;100173.00;5018706;28;20473;-58
2024/01/17 09:17:27;;;;;;;21.90;17.40;;;;;;;17.52;45.67;100163.16;5016868;28;20045;-58
2024/01/17 09:19:55;;;;;;;20.02;16.10;;;;;;;17.53;45.75;100155.97;5033003;28;20045;-57
2024/01/17 09:22:22;;;;;;;18.20;15.25;;;;;;;17.54;45.70;100168.34;5052041;28;20045;-58
2024/01/17 09:24:50;;;;;;;18.63;15.95;;;;;;;17.53;45.70;100182.72;5049932;28;20052;-58
2024/01/17 09:27:17;;;;;;;19.27;15.63;;;;;;;17.54;45.64;100197.78;5048464;28;20053;-58
2024/01/17 09:29:47;;;;;;;19.98;15.77;;;;;;;17.54;45.56;100205.81;5048280;28;20057;-59
2024/01/17 09:32:17;;;;;;;19.25;15.10;;;;;;;17.55;45.70;100212.88;5028340;28;20056;-59
2024/01/17 09:34:47;;;;;;;17.30;15.18;;;;;;;17.57;45.67;100202.03;5020542;28;20053;-58
2024/01/17 09:37:16;;;;;;;15.68;13.93;;;;;;;17.59;45.81;100198.25;5026778;28;20518;-56
2024/01/17 09:39:43;;;;;;;18.02;15.88;;;;;;;17.59;45.72;100218.81;5018095;28;20049;-57
2024/01/17 09:42:13;;;;;;;16.27;14.27;;;;;;;17.58;45.84;100222.47;5018784;28;20054;-57
2024/01/17 09:44:42;;;;;;;17.90;14.38;;;;;;;17.59;45.61;100217.00;5018612;28;20057;-57
2024/01/17 09:47:15;;;;;;;19.00;14.95;;;;;;;17.57;45.73;100221.63;5018183;28;20049;-58
2024/01/17 09:49:44;;;;;;;18.60;15.15;;;;;;;17.57;45.73;100202.88;5017718;28;20049;-57
2024/01/17 09:52:17;;;;;;;18.08;14.15;;;;;;;17.57;45.67;100192.16;5030427;28;20048;-57
2024/01/17 09:54:46;;;;;;;16.85;14.13;;;;;;;17.56;45.68;100198.50;5018740;28;20053;-57
2024/01/17 09:57:24;;;;;;;14.93;12.85;;;;;;;17.56;45.59;100195.84;5017676;28;20061;-57
2024/01/17 09:59:59;;;;;;;16.58;13.15;;;;;;;17.54;45.65;100195.97;5017417;28;20053;-58
2024/01/17 10:02:27;;;;;;;17.83;14.68;;;;;;;17.55;45.61;100205.69;5017597;28;20049;-58
2024/01/17 10:04:57;;;;;;;16.77;14.25;;;;;;;17.54;45.56;100187.09;5017601;28;20046;-57
2024/01/17 10:07:25;;;;;;;18.65;14.70;;;;;;;17.54;45.55;100179.06;5018278;28;20057;-56
2024/01/17 10:09:52;;;;;;;16.30;13.85;;;;;;;17.54;45.52;100168.34;5017565;28;20053;-56
2024/01/17 10:12:19;;;;;;;15.18;13.43;;;;;;;17.54;45.41;100152.28;5019591;28;20045;-56
2024/01/17 10:14:47;;;;;;;16.02;13.23;;;;;;;17.52;45.44;100133.72;5015984;28;20060;-55
2024/01/17 10:17:14;;;;;;;17.08;13.75;;;;;;;17.51;45.52;100126.66;5016181;28;20048;-56
2024/01/17 10:19:42;;;;;;;15.02;12.82;;;;;;;17.52;45.44;100123.00;5030571;28;20053;-57
2024/01/17 10:22:10;;;;;;;16.27;13.70;;;;;;;17.52;45.44;100108.78;5019838;28;20042;-55
2024/01/17 10:24:40;;;;;;;17.08;13.90;;;;;;;17.52;45.43;100119.47;5017818;28;20057;-56
2024/01/17 10:27:08;;;;;;;14.93;12.73;;;;;;;17.50;45.30;100119.63;5017693;28;20050;-56
2024/01/17 10:29:40;;;;;;;15.75;12.68;;;;;;;17.51;45.47;100128.50;5017887;28;20045;-56
2024/01/17 10:32:08;;;;;;;14.23;12.73;;;;;;;17.49;45.41;100111.72;5018644;28;20400;-56
2024/01/17 10:34:39;;;;;;;15.18;12.68;;;;;;;17.49;45.30;100115.25;5017508;28;20061;-56
2024/01/17 10:37:07;;;;;;;16.15;13.05;;;;;;;17.49;45.42;100107.22;5017962;28;20057;-56
2024/01/17 10:39:34;;;;;;;14.63;12.93;;;;;;;17.48;45.43;100089.47;5019289;28;20049;-56
2024/01/17 10:42:05;;;;;;;13.90;12.27;;;;;;;17.48;45.28;100089.47;5017892;28;20053;-56
2024/01/17 10:44:33;;;;;;;17.05;13.77;;;;;;;17.47;45.26;100078.91;5017614;28;20042;-56
2024/01/17 10:47:01;;;;;;;17.17;13.38;;;;;;;17.48;45.32;100080.59;5017252;28;20038;-57
2024/01/17 10:49:30;;;;;;;17.60;13.80;;;;;;;17.47;45.35;100076.25;5019389;28;20049;-57
2024/01/17 10:52:03;;;;;;;15.65;12.60;;;;;;;17.47;45.26;100079.75;5016986;28;20041;-58
2024/01/17 10:54:51;;;;;;;18.90;13.20;;;;;;;17.47;45.19;100076.25;5016998;28;20050;-58
2024/01/17 10:57:20;;;;;;;15.93;12.98;;;;;;;17.47;45.20;100063.72;5019541;28;20408;-56
2024/01/17 10:59:49;;;;;;;16.38;13.65;;;;;;;17.49;45.05;100063.56;5017106;28;20053;-56
2024/01/17 11:02:21;;;;;;;14.00;12.20;;;;;;;17.48;45.20;100075.25;5016852;28;20049;-56
2024/01/17 11:04:57;;;;;;;15.90;13.05;;;;;;;17.48;45.21;100075.25;5017450;28;20053;-55
2024/01/17 11:07:25;;;;;;;13.98;12.43;;;;;;;17.48;45.06;100072.56;5017321;28;20500;-55
2024/01/17 11:09:54;;;;;;;16.00;13.80;;;;;;;17.47;45.16;100082.44;5019284;28;20053;-56
2024/01/17 11:12:21;;;;;;;15.73;13.63;;;;;;;17.48;45.16;100084.13;5016593;28;20042;-56
2024/01/17 11:14:51;;;;;;;15.70;13.55;;;;;;;17.48;45.09;100080.59;5017266;28;20054;-56